Time;durP1;ratioP1;P1;durP2;ratioP2;P2;SDS_P1;SDS_P2;PMS_P1;PMS_P2;Temp;Humidity;BMP_temperature;BMP_pressure;BME280_temperature;BME280_humidity;BME280_pressure;Samples;Min_cycle;Max_cycle;Signal;HPM_P1;HPM_P2
2023/10/18 00:00:00;;;;;;;0.25;0.20;;;;;;;15.73;100.00;101394.56;10451234;28;20381;-83
2023/10/18 00:11:15;;;;;;;0.10;0.10;;;;;;;15.65;100.00;101381.50;10464274;28;20053;-83
2023/10/18 00:16:17;;;;;;;0.10;0.10;;;;;;;15.78;100.00;101378.19;10438449;28;20053;-83
2023/10/18 00:21:19;;;;;;;1.45;0.82;;;;;;;15.16;100.00;101381.72;10440852;28;20037;-83
2023/10/18 00:26:21;;;;;;;0.10;0.10;;;;;;;15.34;100.00;101375.91;10449383;28;20045;-82
2023/10/18 00:31:27;;;;;;;1.17;0.75;;;;;;;15.37;100.00;101375.97;10436144;28;20136;-83
2023/10/18 00:36:30;;;;;;;0.38;0.22;;;;;;;15.43;100.00;101360.47;10446946;28;20049;-83
2023/10/18 00:41:32;;;;;;;0.40;0.30;;;;;;;15.49;100.00;101355.34;10437954;28;20045;-82
2023/10/18 00:46:35;;;;;;;0.80;0.45;;;;;;;15.51;100.00;101358.84;10423706;28;20077;-83
2023/10/18 00:51:37;;;;;;;0.20;0.17;;;;;;;15.13;100.00;101355.69;10440306;28;20044;-83
2023/10/18 00:56:46;;;;;;;0.20;0.20;;;;;;;15.18;100.00;101343.69;10444297;28;20048;-83
2023/10/18 01:01:56;;;;;;;0.15;0.15;;;;;;;15.26;100.00;101335.97;10426541;28;20488;-83
2023/10/18 01:07:05;;;;;;;0.52;0.32;;;;;;;15.50;100.00;101338.91;10430843;28;20048;-82
2023/10/18 01:12:07;;;;;;;0.00;0.00;;;;;;;14.64;100.00;101337.63;10437021;28;20045;-83
2023/10/18 01:17:10;;;;;;;0.50;0.45;;;;;;;15.64;100.00;101325.22;10448354;28;20081;-82
2023/10/18 01:22:12;;;;;;;0.00;0.00;;;;;;;15.47;100.00;101325.88;10432432;28;20064;-82
2023/10/18 01:27:16;;;;;;;0.00;0.00;;;;;;;15.17;100.00;101318.56;10445355;28;20050;-82
2023/10/18 01:32:21;;;;;;;0.30;0.30;;;;;;;15.63;100.00;101315.69;10441348;28;20056;-83
2023/10/18 01:37:23;;;;;;;0.05;0.05;;;;;;;14.23;100.00;101313.66;10426307;28;20049;-83
2023/10/18 01:42:25;;;;;;;0.25;0.25;;;;;;;14.72;100.00;101303.25;10435262;28;20451;-83
2023/10/18 01:47:27;;;;;;;0.35;0.35;;;;;;;14.77;100.00;101295.53;10447314;28;20044;-83
2023/10/18 01:52:41;;;;;;;0.32;0.32;;;;;;;14.89;100.00;101294.84;10449570;28;20093;-84
2023/10/18 01:57:44;;;;;;;0.20;0.20;;;;;;;15.48;100.00;101291.28;10427893;28;20048;-83
2023/10/18 02:02:48;;;;;;;0.28;0.28;;;;;;;15.05;100.00;101280.34;10439202;28;20064;-83
2023/10/18 02:07:53;;;;;;;0.28;0.28;;;;;;;15.01;100.00;101281.16;10440149;28;20052;-83
2023/10/18 02:12:54;;;;;;;1.15;0.38;;;;;;;14.96;100.00;101281.13;10433542;28;20098;-82
2023/10/18 02:17:57;;;;;;;0.03;0.03;;;;;;;15.20;100.00;101279.66;10450227;28;20102;-83
2023/10/18 02:23:02;;;;;;;3.60;0.95;;;;;;;15.27;100.00;101275.44;10426167;28;20053;-83
2023/10/18 02:28:08;;;;;;;0.43;0.30;;;;;;;15.41;100.00;101286.84;10425919;28;20053;-83
2023/10/18 02:33:10;;;;;;;0.00;0.00;;;;;;;14.64;100.00;101289.25;10434067;28;20068;-83
2023/10/18 02:38:12;;;;;;;0.35;0.35;;;;;;;15.04;100.00;101283.78;10417163;28;20044;-83
2023/10/18 02:43:14;;;;;;;0.00;0.00;;;;;;;15.15;100.00;101273.56;10416966;28;20088;-83
2023/10/18 02:48:22;;;;;;;0.25;0.20;;;;;;;14.98;100.00;101263.81;10426809;28;20049;-83
2023/10/18 02:53:25;;;;;;;0.10;0.10;;;;;;;15.09;100.00;101261.38;10423255;28;20051;-83
2023/10/18 02:58:28;;;;;;;0.00;0.00;;;;;;;14.82;100.00;101257.56;10425641;28;20053;-83
2023/10/18 03:03:30;;;;;;;0.30;0.30;;;;;;;15.23;100.00;101248.56;10425575;28;20055;-83
2023/10/18 03:08:33;;;;;;;0.93;0.70;;;;;;;14.72;100.00;101240.09;10439292;28;20049;-83
2023/10/18 03:13:37;;;;;;;0.20;0.20;;;;;;;14.15;100.00;101242.69;10420411;28;20037;-83
2023/10/18 03:18:41;;;;;;;0.08;0.08;;;;;;;14.74;100.00;101234.09;10452413;28;20045;-83
2023/10/18 03:23:46;;;;;;;0.38;0.28;;;;;;;13.88;100.00;101236.19;10448484;28;20121;-85
2023/10/18 03:28:50;;;;;;;1.52;0.63;;;;;;;14.61;100.00;101219.19;10434914;28;20496;-83
2023/10/18 03:33:59;;;;;;;0.10;0.10;;;;;;;14.73;100.00;101226.31;10440938;28;20068;-83
2023/10/18 03:39:15;;;;;;;0.52;0.35;;;;;;;14.51;100.00;101210.41;10435312;28;20049;-83
2023/10/18 03:44:26;;;;;;;0.30;0.30;;;;;;;14.71;100.00;101207.25;10435582;28;20048;-83
2023/10/18 03:49:36;;;;;;;0.25;0.20;;;;;;;13.75;100.00;101210.91;10440280;28;20500;-83
2023/10/18 03:54:46;;;;;;;0.10;0.10;;;;;;;14.50;100.00;101187.91;10444536;28;20053;-83
2023/10/18 03:59:49;;;;;;;0.28;0.28;;;;;;;14.35;100.00;101177.31;10431528;28;20052;-83
2023/10/18 04:04:57;;;;;;;0.52;0.40;;;;;;;14.22;100.00;101164.19;10463804;28;20063;-82
2023/10/18 04:15:19;;;;;;;1.10;0.20;;;;;;;13.47;100.00;101158.63;10445462;28;20063;-84
2023/10/18 04:20:22;;;;;;;0.22;0.22;;;;;;;13.37;100.00;101136.88;10429861;28;20492;-84
2023/10/18 04:25:27;;;;;;;0.93;0.63;;;;;;;13.34;100.00;101134.22;10436480;28;20045;-82
2023/10/18 04:30:32;;;;;;;2.97;0.75;;;;;;;14.09;100.00;101123.41;10450563;28;20125;-83
2023/10/18 04:35:37;;;;;;;0.38;0.38;;;;;;;14.28;100.00;101115.03;10444121;28;20045;-83
2023/10/18 04:40:43;;;;;;;1.35;0.95;;;;;;;14.29;100.00;101110.75;10448685;28;20063;-82
2023/10/18 04:45:57;;;;;;;0.40;0.40;;;;;;;13.79;100.00;101114.31;10425567;28;20073;-84
2023/10/18 04:50:58;;;;;;;0.73;0.70;;;;;;;14.37;100.00;101097.88;10453640;28;20041;-83
2023/10/18 04:56:03;;;;;;;0.20;0.10;;;;;;;14.41;100.00;101081.50;10439412;28;20064;-84
2023/10/18 05:01:07;;;;;;;0.35;0.28;;;;;;;14.53;100.00;101067.81;10433229;28;20044;-83
2023/10/18 05:06:11;;;;;;;0.30;0.25;;;;;;;13.94;100.00;101061.88;10433719;28;20055;-84
2023/10/18 05:11:26;;;;;;;0.25;0.25;;;;;;;13.80;100.00;101061.69;10449739;28;20378;-83
2023/10/18 05:16:30;;;;;;;0.40;0.40;;;;;;;13.54;100.00;101066.44;10437702;28;20135;-82
2023/10/18 05:21:33;;;;;;;0.43;0.43;;;;;;;14.09;100.00;101066.41;10451948;28;20041;-84
2023/10/18 05:27:19;;;;;;;1.15;0.57;;;;;;;13.61;100.00;101063.13;10440846;28;20124;-83
2023/10/18 05:37:58;;;;;;;0.50;0.35;;;;;;;13.81;100.00;101055.66;10425686;28;20159;-84
2023/10/18 05:43:00;;;;;;;1.30;0.82;;;;;;;14.03;100.00;101045.59;10441594;28;20038;-83
2023/10/18 05:48:12;;;;;;;0.20;0.20;;;;;;;13.59;100.00;101050.13;10446967;28;20136;-85
2023/10/18 05:53:18;;;;;;;0.30;0.30;;;;;;;14.18;100.00;101031.97;10431691;28;20041;-83
2023/10/18 05:58:26;;;;;;;0.30;0.30;;;;;;;13.56;100.00;101033.66;10433667;28;20471;-84
2023/10/18 06:03:39;;;;;;;0.20;0.20;;;;;;;14.39;100.00;101028.78;10432411;28;20088;-84
2023/10/18 06:08:41;;;;;;;0.40;0.40;;;;;;;14.16;100.00;101026.78;10423197;28;20123;-84
2023/10/18 06:13:45;;;;;;;0.73;0.60;;;;;;;14.09;100.00;101024.97;10444798;28;20447;-83
2023/10/18 06:18:50;;;;;;;0.40;0.40;;;;;;;14.09;100.00;101010.28;10416834;28;20136;-83
2023/10/18 06:23:54;;;;;;;0.40;0.38;;;;;;;14.32;100.00;101011.44;10430685;28;20098;-83
2023/10/18 06:29:02;;;;;;;1.75;0.28;;;;;;;13.99;100.00;101002.38;10445692;28;20560;-83
2023/10/18 06:34:04;;;;;;;0.52;0.52;;;;;;;14.73;100.00;100998.97;10446406;28;20045;-83
2023/10/18 06:39:06;;;;;;;1.17;0.50;;;;;;;15.05;100.00;100994.94;10433680;28;20131;-82
2023/10/18 06:44:11;;;;;;;0.47;0.40;;;;;;;14.17;100.00;100997.44;10429345;28;20415;-82
2023/10/18 06:49:13;;;;;;;0.30;0.28;;;;;;;14.95;100.00;100993.09;10436288;28;20617;-83
2023/10/18 06:54:14;;;;;;;0.57;0.55;;;;;;;15.32;100.00;100985.63;10421678;28;20136;-83
2023/10/18 06:59:25;;;;;;;0.20;0.17;;;;;;;15.27;100.00;100982.13;10437939;28;20114;-82
2023/10/18 07:04:35;;;;;;;5.28;1.83;;;;;;;15.00;100.00;100979.31;10439908;28;20530;-83
2023/10/18 07:09:37;;;;;;;0.47;0.45;;;;;;;15.69;100.00;100978.09;10436704;28;20037;-84
2023/10/18 07:14:40;;;;;;;1.10;0.30;;;;;;;14.72;100.00;100970.41;10430773;28;20045;-83
2023/10/18 07:24:55;;;;;;;0.82;0.60;;;;;;;14.97;100.00;100961.13;10439092;28;20514;-83
2023/10/18 07:30:00;;;;;;;0.57;0.52;;;;;;;14.93;100.00;100950.75;10445073;28;20138;-84
2023/10/18 07:35:02;;;;;;;0.55;0.43;;;;;;;15.42;100.00;100947.63;10426423;28;20131;-84
2023/10/18 07:40:08;;;;;;;0.45;0.38;;;;;;;15.12;100.00;100934.44;10434216;28;20095;-84
2023/10/18 07:45:21;;;;;;;0.35;0.35;;;;;;;16.04;100.00;100932.41;10437561;28;20065;-85
2023/10/18 07:51:21;;;;;;;0.75;0.40;;;;;;;16.55;100.00;100914.34;10448803;28;20384;-84
2023/10/18 07:55:57;;;;;;;0.50;0.50;;;;;;;15.90;100.00;100919.38;10437485;28;20068;-86
2023/10/18 08:06:15;;;;;;;0.52;0.47;;;;;;;16.24;100.00;100901.28;10447474;28;20056;-84
2023/10/18 08:11:17;;;;;;;4.53;1.50;;;;;;;16.40;100.00;100884.84;10453638;28;20063;-85
2023/10/18 08:16:26;;;;;;;1.58;1.48;;;;;;;16.29;100.00;100883.94;10447886;28;20044;-85
2023/10/18 08:21:29;;;;;;;1.27;0.75;;;;;;;16.81;100.00;100873.59;10431047;28;20041;-84
2023/10/18 08:26:30;;;;;;;0.70;0.70;;;;;;;16.52;100.00;100867.50;10448848;28;20045;-83
2023/10/18 08:31:32;;;;;;;1.10;0.47;;;;;;;16.31;100.00;100871.81;10444307;28;20060;-86
2023/10/18 08:36:34;;;;;;;0.90;0.73;;;;;;;16.07;100.00;100865.69;10450377;28;20496;-86
2023/10/18 08:41:49;;;;;;;0.52;0.52;;;;;;;16.77;100.00;100853.66;10451828;28;20049;-83
2023/10/18 08:47:04;;;;;;;1.15;0.82;;;;;;;17.02;100.00;100842.38;10438066;28;20045;-86
2023/10/18 08:52:08;;;;;;;0.52;0.30;;;;;;;17.27;100.00;100848.38;10438027;28;20045;-88
2023/10/18 08:57:11;;;;;;;0.43;0.43;;;;;;;16.52;100.00;100842.38;10446623;28;20486;-87
2023/10/18 09:02:18;;;;;;;0.15;0.15;;;;;;;17.82;100.00;100831.66;10442756;28;20049;-85
2023/10/18 09:07:42;;;;;;;0.80;0.57;;;;;;;17.31;100.00;100818.88;10440146;28;20048;-85
2023/10/18 09:17:46;;;;;;;0.30;0.28;;;;;;;18.20;100.00;100811.50;10451720;28;20057;-87
2023/10/18 09:22:48;;;;;;;1.15;0.50;;;;;;;17.02;100.00;100816.34;10431430;28;20053;-84
2023/10/18 09:27:51;;;;;;;0.80;0.65;;;;;;;18.48;100.00;100806.06;10442256;28;20488;-87
2023/10/18 09:32:53;;;;;;;0.55;0.47;;;;;;;17.93;100.00;100800.34;10439728;28;20084;-86
2023/10/18 09:38:01;;;;;;;0.22;0.22;;;;;;;18.59;100.00;100788.56;10443357;28;20048;-85
2023/10/18 09:43:03;;;;;;;0.40;0.38;;;;;;;18.02;100.00;100789.03;10447288;28;20052;-86
2023/10/18 09:48:08;;;;;;;0.52;0.50;;;;;;;18.04;100.00;100779.44;10434693;28;20338;-86
2023/10/18 09:53:12;;;;;;;1.17;0.38;;;;;;;19.20;100.00;100775.78;10441956;28;20037;-85
2023/10/18 09:58:18;;;;;;;0.40;0.40;;;;;;;19.31;100.00;100773.91;10439936;28;20068;-86
2023/10/18 10:03:26;;;;;;;2.95;1.23;;;;;;;18.93;100.00;100761.28;10444827;28;20041;-85
2023/10/18 10:08:31;;;;;;;1.20;0.63;;;;;;;19.18;100.00;100752.28;10450474;28;20107;-86
2023/10/18 10:13:37;;;;;;;0.57;0.40;;;;;;;21.28;100.00;100741.03;10434574;28;20045;-86
2023/10/18 10:18:43;;;;;;;0.85;0.38;;;;;;;20.82;100.00;100725.34;10450019;28;20539;-86
2023/10/18 10:23:45;;;;;;;0.57;0.35;;;;;;;20.49;100.00;100712.00;10435357;28;20044;-89
2023/10/18 10:34:06;;;;;;;0.82;0.52;;;;;;;21.59;100.00;100714.19;10443823;28;20056;-89
2023/10/18 10:39:12;;;;;;;0.30;0.25;;;;;;;21.18;100.00;100704.56;10448982;28;20040;-87
2023/10/18 10:44:22;;;;;;;0.73;0.47;;;;;;;21.12;100.00;100696.81;10449650;28;20146;-87
2023/10/18 10:50:00;;;;;;;0.65;0.50;;;;;;;20.28;99.27;100669.66;10442919;28;20120;-86
2023/10/18 10:55:15;;;;;;;0.90;0.47;;;;;;;21.11;99.98;100661.03;10415405;28;20052;-86
2023/10/18 11:05:39;;;;;;;0.15;0.10;;;;;;;20.89;100.00;100645.78;10440742;28;20060;-90
2023/10/18 11:10:42;;;;;;;1.70;0.60;;;;;;;21.00;98.39;100631.63;10430429;28;20053;-86
2023/10/18 11:15:43;;;;;;;0.08;0.08;;;;;;;21.32;100.00;100623.03;10464223;28;20048;-86
2023/10/18 11:21:12;;;;;;;0.10;0.10;;;;;;;21.66;98.12;100611.78;10450224;28;20048;-86
2023/10/18 11:26:24;;;;;;;0.30;0.25;;;;;;;22.71;99.25;100587.09;10445065;28;20141;-87
2023/10/18 11:31:26;;;;;;;0.28;0.20;;;;;;;21.92;97.55;100588.41;10447686;28;20053;-86
2023/10/18 11:36:30;;;;;;;1.30;0.52;;;;;;;23.03;95.40;100561.63;10425915;28;20049;-86
2023/10/18 11:41:37;;;;;;;0.10;0.10;;;;;;;22.52;94.22;100539.53;10458424;28;20136;-86
2023/10/18 11:46:50;;;;;;;0.30;0.20;;;;;;;21.95;96.88;100538.47;10435994;28;20041;-86
2023/10/18 11:51:53;;;;;;;0.57;0.40;;;;;;;21.86;96.34;100534.34;10448841;28;20037;-86
2023/10/18 11:56:56;;;;;;;6.75;0.40;;;;;;;22.42;95.55;100517.06;10455720;28;20044;-86
2023/10/18 12:02:04;;;;;;;1.17;0.30;;;;;;;22.61;94.28;100509.50;10445927;28;20046;-87
2023/10/18 12:07:08;;;;;;;1.10;0.57;;;;;;;22.82;92.82;100500.94;10456796;28;20056;-84
2023/10/18 12:12:12;;;;;;;0.10;0.10;;;;;;;22.38;93.71;100487.41;10450604;28;20151;-84
2023/10/18 12:17:15;;;;;;;1.27;0.25;;;;;;;23.17;94.04;100463.09;10454916;28;20072;-85
2023/10/18 12:22:17;;;;;;;0.55;0.30;;;;;;;22.23;91.95;100459.03;10452836;28;20096;-86
2023/10/18 12:27:33;;;;;;;0.98;0.50;;;;;;;22.67;91.39;100454.19;10436082;28;20110;-84
2023/10/18 12:32:42;;;;;;;0.17;0.17;;;;;;;22.06;95.60;100442.00;10434725;28;20049;-85
2023/10/18 12:37:45;;;;;;;0.10;0.10;;;;;;;21.48;91.92;100433.97;10400107;28;20049;-84
2023/10/18 12:42:47;;;;;;;0.35;0.35;;;;;;;22.36;94.08;100423.63;10435590;28;20110;-84
2023/10/18 12:47:51;;;;;;;0.35;0.30;;;;;;;22.64;93.81;100422.78;10434080;28;20041;-87
2023/10/18 12:52:56;;;;;;;0.17;0.05;;;;;;;;;;10450516;28;20045;-86
2023/10/18 12:58:00;;;;;;;0.10;0.10;;;;;;;22.82;94.02;100406.41;10429715;28;20084;-85
2023/10/18 13:08:15;;;;;;;0.10;0.10;;;;;;;21.39;92.34;100382.69;10449135;28;20076;-83
2023/10/18 13:13:17;;;;;;;0.10;0.10;;;;;;;22.30;95.97;100380.06;10450115;28;20219;-82
2023/10/18 13:18:19;;;;;;;0.75;0.57;;;;;;;21.59;94.44;100362.94;10450877;28;20493;-85
2023/10/18 13:23:27;;;;;;;0.00;0.00;;;;;;;22.84;93.78;100355.59;10445775;28;20047;-87
2023/10/18 13:28:39;;;;;;;0.32;0.20;;;;;;;22.49;93.47;100346.25;10437130;28;20053;-83
2023/10/18 13:33:41;;;;;;;0.10;0.10;;;;;;;21.64;94.13;100329.59;10444941;28;20477;-86
2023/10/18 13:38:44;;;;;;;0.00;0.00;;;;;;;22.11;95.10;100310.72;10429503;28;20128;-85
2023/10/18 13:43:45;;;;;;;0.60;0.28;;;;;;;21.48;96.51;100314.28;10448906;28;20055;-87
2023/10/18 13:48:50;;;;;;;0.95;0.35;;;;;;;21.60;97.68;100288.66;10427074;28;20061;-85
2023/10/18 13:53:52;;;;;;;0.22;0.20;;;;;;;21.53;95.66;100270.47;10436561;28;20049;-86
2023/10/18 13:58:54;;;;;;;0.43;0.40;;;;;;;22.69;95.43;100263.31;10423915;28;20460;-87
2023/10/18 14:03:59;;;;;;;0.10;0.10;;;;;;;22.87;96.24;100250.47;10451765;28;20131;-86
2023/10/18 14:09:10;;;;;;;0.32;0.20;;;;;;;21.81;95.42;100243.44;10436215;28;20063;-85
2023/10/18 14:14:12;;;;;;;0.68;0.40;;;;;;;21.90;96.87;100230.94;10423154;28;20033;-87
2023/10/18 14:19:18;;;;;;;0.38;0.25;;;;;;;21.35;95.60;100215.97;10431576;28;20064;-86
2023/10/18 14:24:25;;;;;;;0.52;0.35;;;;;;;22.16;95.06;100193.38;10422317;28;20033;-86
2023/10/18 14:29:26;;;;;;;0.77;0.40;;;;;;;22.84;95.74;100185.78;10495867;28;20131;-86
2023/10/18 14:34:28;;;;;;;0.13;0.13;;;;;;;21.70;96.04;100172.16;10533633;28;20101;-90
2023/10/18 14:39:30;;;;;;;0.50;0.20;;;;;;;20.98;96.85;100165.53;10235783;28;20076;-82
2023/10/18 14:44:40;;;;;;;0.63;0.63;;;;;;;21.23;94.54;100157.81;9856728;29;1059754;-86
2023/10/18 14:49:43;;;;;;;0.30;0.20;;;;;;;22.14;96.86;100155.81;9427207;30;20483;-84
2023/10/18 14:54:46;;;;;;;0.35;0.35;;;;;;;21.93;96.33;100146.94;9442293;31;20591;-86
2023/10/18 14:59:49;;;;;;;1.75;0.52;;;;;;;21.39;98.25;100131.16;9432954;31;20061;-86
2023/10/18 15:04:52;;;;;;;0.15;0.13;;;;;;;21.65;97.65;100132.09;9455707;31;20064;-87
2023/10/18 15:09:54;;;;;;;0.00;0.00;;;;;;;21.28;96.76;100133.22;9448695;31;20061;-85
2023/10/18 15:14:56;;;;;;;0.00;0.00;;;;;;;20.81;97.94;100123.28;9448228;31;20057;-85
2023/10/18 15:19:58;;;;;;;0.05;0.05;;;;;;;21.08;96.66;100122.44;9450674;31;20089;-88
2023/10/18 15:25:04;;;;;;;0.13;0.13;;;;;;;20.53;96.74;100114.41;9450735;31;20056;-87
2023/10/18 15:30:07;;;;;;;0.00;0.00;;;;;;;21.04;96.54;100093.78;9430728;31;20057;-85
2023/10/18 15:35:12;;;;;;;0.65;0.30;;;;;;;19.60;96.44;100090.69;9457957;31;20492;-86
2023/10/18 15:40:13;;;;;;;0.28;0.20;;;;;;;20.24;96.51;100071.63;9430967;31;20088;-85
2023/10/18 15:45:17;;;;;;;0.20;0.20;;;;;;;20.02;95.18;100054.81;9403531;31;1075406;-84
2023/10/18 15:50:19;;;;;;;0.93;0.52;;;;;;;20.19;96.06;100052.59;9686277;30;20045;-86
2023/10/18 15:55:21;;;;;;;0.38;0.30;;;;;;;20.35;95.96;100036.47;9770706;30;20063;-89
2023/10/18 16:00:23;;;;;;;0.30;0.20;;;;;;;20.57;94.62;100027.09;9784373;30;20498;-86
2023/10/18 16:05:31;;;;;;;0.20;0.10;;;;;;;20.33;96.25;100012.94;9776393;30;20134;-87
2023/10/18 16:10:33;;;;;;;0.32;0.17;;;;;;;20.64;95.16;100011.22;9758157;30;20064;-84
2023/10/18 16:15:35;;;;;;;0.22;0.10;;;;;;;20.21;95.74;100001.13;9769505;30;20053;-85
2023/10/18 16:20:40;;;;;;;0.10;0.10;;;;;;;19.31;96.11;100011.28;9769194;30;20100;-82
2023/10/18 16:25:42;;;;;;;0.35;0.30;;;;;;;20.40;94.69;100008.41;9783523;30;20146;-85
2023/10/18 16:30:46;;;;;;;0.00;0.00;;;;;;;19.85;95.63;99997.75;9787204;30;20154;-85
2023/10/18 16:35:56;;;;;;;0.35;0.30;;;;;;;19.35;95.22;99985.94;9761640;30;20140;-86
2023/10/18 16:41:04;;;;;;;0.95;0.88;;;;;;;19.30;95.13;99973.00;9781320;30;20461;-84
2023/10/18 16:46:08;;;;;;;0.43;0.30;;;;;;;19.66;94.72;99969.44;9872059;29;20052;-84
2023/10/18 16:51:15;;;;;;;0.10;0.10;;;;;;;19.18;94.68;99962.84;10000819;29;20053;-84
2023/10/18 16:56:18;;;;;;;0.47;0.40;;;;;;;19.15;96.23;99966.38;10001183;29;20401;-84
2023/10/18 17:01:21;;;;;;;0.30;0.30;;;;;;;19.25;95.18;99967.00;10007886;29;20046;-83
2023/10/18 17:06:24;;;;;;;0.10;0.10;;;;;;;20.20;93.30;99954.94;10012679;29;20478;-85
2023/10/18 17:11:26;;;;;;;1.00;0.38;;;;;;;19.49;94.00;99957.72;9999924;29;20130;-83
2023/10/18 17:16:29;;;;;;;0.52;0.52;;;;;;;19.37;94.10;99942.34;10001541;29;20486;-83
2023/10/18 17:21:31;;;;;;;0.00;0.00;;;;;;;19.77;95.28;99940.44;9995050;29;20057;-87
2023/10/18 17:26:33;;;;;;;0.20;0.20;;;;;;;19.49;94.66;99930.72;10008481;29;20107;-85
2023/10/18 17:31:36;;;;;;;0.30;0.30;;;;;;;20.01;94.69;99928.47;10012443;29;20056;-85
2023/10/18 17:36:38;;;;;;;0.17;0.17;;;;;;;20.29;93.65;99911.94;10001233;29;20058;-84
2023/10/18 17:41:40;;;;;;;0.20;0.20;;;;;;;19.14;94.54;99911.63;10010351;29;20146;-84
2023/10/18 17:46:47;;;;;;;0.00;0.00;;;;;;;20.15;94.21;99898.44;9996565;29;20139;-85
2023/10/18 17:51:51;;;;;;;0.20;0.20;;;;;;;19.28;92.83;99890.38;10128921;29;20419;-84
2023/10/18 17:56:53;;;;;;;0.65;0.05;;;;;;;20.52;93.00;99873.75;10117496;29;20100;-83
2023/10/18 18:01:54;;;;;;;0.10;0.10;;;;;;;19.45;92.63;99869.03;10132138;29;20131;-84
2023/10/18 18:06:57;;;;;;;0.10;0.10;;;;;;;20.58;93.30;99850.88;10120769;29;20092;-86
2023/10/18 18:11:59;;;;;;;0.40;0.38;;;;;;;19.79;95.01;99847.16;10139045;29;20053;-83
2023/10/18 18:17:01;;;;;;;0.63;0.43;;;;;;;19.24;94.18;99847.81;10139738;29;20048;-85
2023/10/18 18:22:02;;;;;;;0.20;0.20;;;;;;;20.02;93.46;99840.41;10130981;29;20056;-86
2023/10/18 18:27:04;;;;;;;0.90;0.75;;;;;;;19.55;93.69;99843.50;10131788;29;20044;-85
2023/10/18 18:32:08;;;;;;;0.52;0.10;;;;;;;19.18;94.29;99830.56;10105098;29;20523;-84
2023/10/18 18:37:10;;;;;;;0.60;0.47;;;;;;;19.61;94.52;99828.50;10137026;29;20071;-85
2023/10/18 18:42:11;;;;;;;0.85;0.35;;;;;;;19.74;93.35;99809.84;10131739;29;20053;-84
2023/10/18 18:47:14;;;;;;;0.30;0.10;;;;;;;20.02;94.13;99794.25;10242469;28;20049;-85
2023/10/18 18:52:16;;;;;;;0.63;0.40;;;;;;;19.50;95.27;99787.03;10327296;28;20037;-85
2023/10/18 18:57:18;;;;;;;0.10;0.10;;;;;;;19.27;93.97;99785.06;10366839;28;20108;-85
2023/10/18 19:02:21;;;;;;;0.60;0.40;;;;;;;19.58;94.30;99778.97;10346449;28;20076;-86
2023/10/18 19:07:23;;;;;;;0.20;0.10;;;;;;;20.06;93.50;99763.63;10356478;28;20073;-85
2023/10/18 19:12:25;;;;;;;0.20;0.20;;;;;;;19.33;95.33;99765.75;10346365;28;20038;-84
2023/10/18 19:17:27;;;;;;;0.15;0.15;;;;;;;19.31;95.46;99773.63;10332688;28;20056;-83
2023/10/18 19:22:32;;;;;;;0.35;0.35;;;;;;;20.04;93.78;99762.81;10341934;28;20049;-88
2023/10/18 19:27:34;;;;;;;0.00;0.00;;;;;;;19.98;94.47;99758.63;10335470;28;20506;-85
2023/10/18 19:32:40;;;;;;;0.03;0.00;;;;;;;18.78;96.21;99760.25;10321538;28;20038;-85
2023/10/18 19:37:42;;;;;;;0.77;0.52;;;;;;;19.01;95.65;99752.72;10334695;28;20049;-85
2023/10/18 19:42:44;;;;;;;0.30;0.10;;;;;;;19.66;95.54;99729.94;10349892;28;20070;-85
2023/10/18 19:47:45;;;;;;;0.20;0.20;;;;;;;19.81;96.21;99712.06;10391777;28;20041;-85
2023/10/18 19:52:47;;;;;;;0.03;0.03;;;;;;;19.96;94.57;99705.53;10475076;28;20047;-85
2023/10/18 19:57:49;;;;;;;0.08;0.08;;;;;;;19.56;95.35;99691.09;10458257;28;20423;-83
2023/10/18 20:02:50;;;;;;;0.10;0.10;;;;;;;19.05;98.08;99696.06;10464046;28;20384;-82
2023/10/18 20:07:52;;;;;;;0.00;0.00;;;;;;;18.98;99.24;99690.16;10473185;28;20043;-85
2023/10/18 20:12:55;;;;;;;0.38;0.20;;;;;;;19.80;100.00;99684.22;10475451;28;20384;-85
2023/10/18 20:17:57;;;;;;;0.28;0.20;;;;;;;19.62;100.00;99681.28;10456784;28;20438;-89
2023/10/18 20:23:00;;;;;;;0.10;0.10;;;;;;;18.93;100.00;99678.13;10466350;28;20458;-87
2023/10/18 20:28:01;;;;;;;0.40;0.20;;;;;;;19.77;100.00;99663.44;10487356;28;20037;-85
2023/10/18 20:33:03;;;;;;;0.10;0.10;;;;;;;19.77;100.00;99660.81;10479546;28;20044;-89
2023/10/18 20:38:05;;;;;;;0.85;0.45;;;;;;;19.38;100.00;99661.16;10461982;28;20050;-88
2023/10/18 20:43:07;;;;;;;0.35;0.30;;;;;;;18.55;100.00;99654.78;10465909;28;20048;-89
2023/10/18 20:48:09;;;;;;;0.00;0.00;;;;;;;19.43;100.00;99638.38;10446765;28;20061;-89
2023/10/18 20:53:17;;;;;;;0.30;0.20;;;;;;;18.93;100.00;99645.06;10447659;28;20100;-90
2023/10/18 20:58:22;;;;;;;0.20;0.13;;;;;;;18.97;100.00;99627.56;10443632;28;20053;-85
2023/10/18 21:03:26;;;;;;;0.38;0.30;;;;;;;18.88;100.00;99631.25;10438417;28;20057;-85
2023/10/18 21:08:31;;;;;;;0.00;0.00;;;;;;;18.93;100.00;99629.41;10436695;28;20140;-84
2023/10/18 21:13:32;;;;;;;0.20;0.10;;;;;;;18.66;100.00;99631.84;10445639;28;20059;-84
2023/10/18 21:18:35;;;;;;;0.10;0.10;;;;;;;19.20;100.00;99615.56;10434353;28;20056;-84
2023/10/18 21:23:39;;;;;;;0.05;0.05;;;;;;;17.81;100.00;99615.78;10431211;28;20130;-83
2023/10/18 21:28:42;;;;;;;0.30;0.30;;;;;;;18.21;100.00;99608.72;10456920;28;20534;-82
2023/10/18 21:33:44;;;;;;;0.55;0.25;;;;;;;18.98;100.00;99585.75;10441602;28;20485;-83
2023/10/18 21:38:46;;;;;;;0.00;0.00;;;;;;;18.06;100.00;99581.34;10458209;28;20053;-84
2023/10/18 21:43:48;;;;;;;0.95;0.45;;;;;;;17.90;100.00;99565.22;10441913;28;20122;-83
2023/10/18 21:48:51;;;;;;;0.22;0.17;;;;;;;18.10;100.00;99548.22;10436641;28;20053;-85
2023/10/18 21:53:53;;;;;;;0.25;0.25;;;;;;;18.14;100.00;99544.63;10419712;28;20152;-85
2023/10/18 21:58:55;;;;;;;0.73;0.50;;;;;;;17.95;100.00;99534.72;10418230;28;20128;-84
2023/10/18 22:04:03;;;;;;;0.25;0.15;;;;;;;18.49;100.00;99529.78;10420068;28;20138;-85
2023/10/18 22:09:24;;;;;;;0.88;0.30;;;;;;;17.51;100.00;99527.09;10400263;28;20050;-86
2023/10/18 22:14:26;;;;;;;0.32;0.20;;;;;;;18.13;100.00;99527.31;10393577;28;20484;-86
2023/10/18 22:19:32;;;;;;;0.00;0.00;;;;;;;18.02;100.00;99515.41;10398736;28;20072;-84
2023/10/18 22:24:37;;;;;;;0.20;0.20;;;;;;;18.71;100.00;99506.50;10398349;28;20467;-88
2023/10/18 22:29:41;;;;;;;0.10;0.10;;;;;;;18.02;100.00;99489.34;10399143;28;20060;-88
2023/10/18 22:34:43;;;;;;;0.20;0.10;;;;;;;19.22;100.00;99460.59;10414669;28;20045;-84
2023/10/18 22:39:50;;;;;;;0.65;0.40;;;;;;;17.93;100.00;99455.69;10388345;28;20054;-85
2023/10/18 22:45:07;;;;;;;0.20;0.20;;;;;;;17.20;100.00;99441.13;10410446;28;20132;-87
2023/10/18 22:55:46;;;;;;;0.38;0.32;;;;;;;17.73;100.00;99457.09;10373403;28;20111;-84
2023/10/18 23:00:49;;;;;;;0.08;0.08;;;;;;;16.00;100.00;99445.47;10415239;28;20242;-84
2023/10/18 23:05:58;;;;;;;0.70;0.43;;;;;;;17.08;100.00;99453.53;10400305;28;20069;-83
2023/10/18 23:11:17;;;;;;;0.68;0.65;;;;;;;16.82;100.00;99456.72;10398907;28;20053;-84
2023/10/18 23:17:28;;;;;;;1.23;0.85;;;;;;;16.59;100.00;99439.91;10407250;28;20045;-85
2023/10/18 23:38:22;;;;;;;0.45;0.25;;;;;;;17.33;100.00;99421.69;10383298;28;20057;-83
2023/10/18 23:53:48;;;;;;;0.45;0.32;;;;;;;17.83;100.00;99373.50;10401483;28;20076;-83
2023/10/18 23:58:50;;;;;;;0.20;0.20;;;;;;;18.50;100.00;99369.81;10419159;28;20156;-83
